createdAt,value
2022-10-12T09:36:19.703Z,14.67
2022-10-12T09:41:29.711Z,15.00
2022-10-12T09:46:40.067Z,14.40
2022-10-12T09:51:42.478Z,14.40
2022-10-12T09:56:54.674Z,14.88
2022-10-12T10:02:11.546Z,15.82
2022-10-12T10:07:31.377Z,12.75
2022-10-12T10:12:34.857Z,13.17
2022-10-12T10:17:36.648Z,12.15
2022-10-12T10:22:47.914Z,13.20
2022-10-12T10:27:51.456Z,10.90
2022-10-12T10:33:17.670Z,9.75
2022-10-12T10:38:19.475Z,10.88
2022-10-12T10:43:31.791Z,13.02
2022-10-12T10:49:06.573Z,8.23
2022-10-12T10:54:23.976Z,8.75
2022-10-12T10:59:53.265Z,10.38
2022-10-12T11:05:20.320Z,11.05
2022-10-12T11:10:27.868Z,10.63
2022-10-12T11:15:50.199Z,12.95
2022-10-12T11:21:20.214Z,10.40
2022-10-12T11:26:37.979Z,9.53
2022-10-12T11:31:45.656Z,12.73
2022-10-12T11:37:14.816Z,6.82
2022-10-12T11:42:21.731Z,10.07
2022-10-12T11:47:36.125Z,11.13
2022-10-12T11:52:43.810Z,8.75
2022-10-12T11:57:47.324Z,5.32
2022-10-12T12:03:18.352Z,9.90
2022-10-12T12:08:44.187Z,11.05
2022-10-12T12:13:45.898Z,11.55
2022-10-12T12:19:25.137Z,10.18
2022-10-12T12:24:27.063Z,7.07
2022-10-12T12:29:31.928Z,6.55
2022-10-12T12:34:34.456Z,15.95
2022-10-12T12:39:36.818Z,7.22
2022-10-12T12:44:41.589Z,8.20
2022-10-12T12:49:50.264Z,12.85
2022-10-12T12:55:25.910Z,13.27
2022-10-12T13:00:39.152Z,11.45
2022-10-12T13:05:53.040Z,10.15
2022-10-12T13:11:01.072Z,12.65
2022-10-12T13:16:41.545Z,8.13
2022-10-12T13:21:47.143Z,9.90
2022-10-12T13:26:54.928Z,8.93
2022-10-12T13:32:02.668Z,8.88
2022-10-12T13:37:13.131Z,8.45
2022-10-12T13:42:30.800Z,7.68
2022-10-12T13:47:33.746Z,12.65
2022-10-12T13:52:36.234Z,8.75
2022-10-12T13:57:40.883Z,8.38
2022-10-12T14:02:53.341Z,12.85
2022-10-12T14:08:05.888Z,6.78
2022-10-12T14:13:13.105Z,12.75
2022-10-12T14:18:51.035Z,7.88
2022-10-12T14:23:54.179Z,7.57
2022-10-12T14:28:57.906Z,11.95
2022-10-12T14:34:26.330Z,11.48
2022-10-12T14:39:28.193Z,5.38
2022-10-12T14:44:41.524Z,7.72
2022-10-12T14:49:48.814Z,8.55
2022-10-12T14:59:57.921Z,9.63
2022-10-12T15:04:59.983Z,8.52
2022-10-12T15:10:02.178Z,9.55
2022-10-12T15:15:45.814Z,17.50
2022-10-12T15:20:49.832Z,8.77
2022-10-12T15:25:52.918Z,6.10
2022-10-12T15:36:16.404Z,10.40
2022-10-12T15:41:20.689Z,14.02
2022-10-12T15:46:22.463Z,16.92
2022-10-12T15:51:24.897Z,7.13
2022-10-12T15:56:26.665Z,13.90
2022-10-12T16:01:28.596Z,8.57
2022-10-12T16:06:31.839Z,9.60
2022-10-12T16:11:33.704Z,12.70
2022-10-12T16:16:35.563Z,8.23
2022-10-12T16:21:37.290Z,7.53
2022-10-12T16:26:44.105Z,5.97
2022-10-12T16:31:48.164Z,11.75
2022-10-12T16:36:49.865Z,9.80
2022-10-12T16:41:51.976Z,8.52
2022-10-12T16:46:53.705Z,13.93
2022-10-12T16:51:55.432Z,10.30
2022-10-12T16:56:57.524Z,11.80
2022-10-12T17:01:59.753Z,10.65
2022-10-12T17:07:01.581Z,13.57
2022-10-12T17:12:04.137Z,6.03
2022-10-12T17:17:05.967Z,8.75
2022-10-12T17:22:10.597Z,12.20
2022-10-12T17:27:14.609Z,14.43
2022-10-12T17:32:17.272Z,10.38
2022-10-12T17:37:20.121Z,12.88
2022-10-12T17:42:23.103Z,13.98
2022-10-12T17:47:24.906Z,13.25
2022-10-12T17:52:26.929Z,19.30
2022-10-12T17:57:28.657Z,15.88
2022-10-12T18:02:30.384Z,16.88
2022-10-12T18:07:32.139Z,11.82
2022-10-12T18:12:34.634Z,17.10
2022-10-12T18:17:37.096Z,17.42
2022-10-12T18:22:38.886Z,18.02
2022-10-12T18:27:40.897Z,15.48
2022-10-12T18:32:42.669Z,18.88
2022-10-12T18:37:45.251Z,18.35
2022-10-12T18:42:47.123Z,16.33
2022-10-12T18:47:49.415Z,18.38
2022-10-12T18:52:51.284Z,29.48
2022-10-12T18:57:53.250Z,18.65
2022-10-12T19:02:55.072Z,21.65
2022-10-12T19:07:56.999Z,21.98
2022-10-12T19:12:59.963Z,26.77
2022-10-12T19:18:02.044Z,49.78
2022-10-12T19:23:03.910Z,53.20
2022-10-12T19:28:05.846Z,49.28
2022-10-12T19:33:07.652Z,35.08
2022-10-12T19:38:09.874Z,32.17
2022-10-12T19:43:12.818Z,29.00
2022-10-12T19:48:14.710Z,25.45
2022-10-12T19:53:16.471Z,19.15
2022-10-12T19:58:18.402Z,28.13
2022-10-12T20:03:20.255Z,22.60
2022-10-12T20:08:22.539Z,15.63
2022-10-12T20:13:24.311Z,17.95
2022-10-12T20:18:27.341Z,16.42
2022-10-12T20:23:29.083Z,21.10
2022-10-12T20:28:30.849Z,14.38
2022-10-12T20:33:34.363Z,20.00
2022-10-12T20:38:39.863Z,28.27
2022-10-12T20:43:42.729Z,17.63
2022-10-12T20:48:45.898Z,16.88
2022-10-12T20:53:47.844Z,20.83
2022-10-12T20:58:49.573Z,18.15
2022-10-12T21:03:52.869Z,16.90
2022-10-12T21:08:57.320Z,22.98
2022-10-12T21:13:59.304Z,15.43
2022-10-12T21:19:01.087Z,18.08
2022-10-12T21:24:03.961Z,26.95
2022-10-12T21:29:06.142Z,32.50
2022-10-12T21:34:09.248Z,19.90
2022-10-12T21:39:16.231Z,25.48
2022-10-12T21:44:18.089Z,17.77
2022-10-12T21:49:19.882Z,20.15
2022-10-12T21:54:21.613Z,20.00
2022-10-12T21:59:23.324Z,15.25
2022-10-12T22:04:25.182Z,20.98
2022-10-12T22:09:26.917Z,20.15
2022-10-12T22:14:28.711Z,16.50
2022-10-12T22:19:31.058Z,19.55
2022-10-12T22:24:32.836Z,18.05
2022-10-12T22:29:35.209Z,21.95
2022-10-12T22:34:36.991Z,19.65
2022-10-12T22:39:38.767Z,18.67
2022-10-12T22:44:40.487Z,22.45
2022-10-12T22:49:42.202Z,20.67
2022-10-12T22:54:44.061Z,19.40
2022-10-12T22:59:45.811Z,20.85
2022-10-12T23:04:47.883Z,21.55
2022-10-12T23:09:49.846Z,21.95
2022-10-12T23:14:51.758Z,15.95
2022-10-12T23:19:53.644Z,27.52
2022-10-12T23:24:55.352Z,23.00
2022-10-12T23:29:57.142Z,22.45
2022-10-12T23:34:58.948Z,16.95
2022-10-12T23:40:00.688Z,19.48
2022-10-12T23:45:03.908Z,18.95
2022-10-12T23:50:05.883Z,23.38
2022-10-12T23:55:08.228Z,17.00
